Time;durP1;ratioP1;P1;durP2;ratioP2;P2;SDS_P1;SDS_P2;PMS_P1;PMS_P2;Temp;Humidity;BMP_temperature;BMP_pressure;BME280_temperature;BME280_humidity;BME280_pressure;Samples;Min_cycle;Max_cycle;Signal;HPM_P1;HPM_P2
2021/03/03 00:02:14;;;;;;;8.90;4.22;;;20.70;36.60;;;;;;5075936;28;20037;-63
2021/03/03 00:04:39;;;;;;;8.45;4.28;;;20.70;36.60;;;;;;5075538;28;20025;-63
2021/03/03 00:07:05;;;;;;;7.60;4.10;;;20.70;36.70;;;;;;5074841;28;20353;-63
2021/03/03 00:09:30;;;;;;;7.88;4.22;;;20.70;36.60;;;;;;5073451;28;20028;-63
2021/03/03 00:11:56;;;;;;;8.63;4.47;;;20.60;36.70;;;;;;5078692;28;20112;-63
2021/03/03 00:14:21;;;;;;;10.85;5.05;;;20.60;36.70;;;;;;5082804;28;20083;-64
2021/03/03 00:16:47;;;;;;;10.32;4.70;;;20.60;36.70;;;;;;5082621;28;20024;-63
2021/03/03 00:19:13;;;;;;;10.27;4.85;;;20.60;36.70;;;;;;5083193;28;20036;-63
2021/03/03 00:21:38;;;;;;;9.10;4.15;;;20.60;36.70;;;;;;5083303;28;20025;-63
2021/03/03 00:24:04;;;;;;;9.20;4.43;;;20.60;36.70;;;;;;5082073;28;20078;-63
2021/03/03 00:26:30;;;;;;;10.23;5.10;;;20.60;36.70;;;;;;5083258;28;20468;-63
2021/03/03 00:28:55;;;;;;;8.65;4.72;;;20.60;36.70;;;;;;5082407;28;20032;-63
2021/03/03 00:31:22;;;;;;;10.85;4.40;;;20.60;36.70;;;;;;5082564;28;20039;-63
2021/03/03 00:33:48;;;;;;;8.70;4.75;;;20.50;36.70;;;;;;5081984;28;20043;-63
2021/03/03 00:36:13;;;;;;;10.20;4.90;;;20.50;36.70;;;;;;5074210;28;20024;-63
2021/03/03 00:38:39;;;;;;;9.73;4.80;;;20.50;36.70;;;;;;5079259;28;20029;-63
2021/03/03 00:41:05;;;;;;;10.98;5.32;;;20.50;36.70;;;;;;5082485;28;20120;-63
2021/03/03 00:43:31;;;;;;;8.75;4.50;;;20.50;36.70;;;;;;5083850;28;20029;-63
2021/03/03 00:45:56;;;;;;;10.38;4.95;;;20.50;36.70;;;;;;5075574;28;20473;-63
2021/03/03 00:48:22;;;;;;;7.75;4.50;;;20.50;36.70;;;;;;5079967;28;20056;-63
2021/03/03 00:50:48;;;;;;;10.25;4.57;;;20.50;36.70;;;;;;5081389;28;20021;-63
2021/03/03 00:53:13;;;;;;;7.88;4.22;;;20.50;36.70;;;;;;5082282;28;20445;-63
2021/03/03 00:55:39;;;;;;;8.65;4.70;;;20.50;36.70;;;;;;5079546;28;20024;-63
2021/03/03 00:58:05;;;;;;;8.13;4.15;;;20.50;36.70;;;;;;5082282;28;20373;-63
2021/03/03 01:00:31;;;;;;;10.10;4.88;;;20.50;36.70;;;;;;5081771;28;20048;-63
2021/03/03 01:02:56;;;;;;;8.10;4.57;;;20.50;36.70;;;;;;5081295;28;20055;-63
2021/03/03 01:05:22;;;;;;;8.13;4.18;;;20.50;36.60;;;;;;5082813;28;20103;-63
2021/03/03 01:07:48;;;;;;;9.75;4.45;;;20.50;36.70;;;;;;5083299;28;20029;-63
2021/03/03 01:10:14;;;;;;;7.57;4.20;;;20.50;36.70;;;;;;5082421;28;20028;-63
2021/03/03 01:12:39;;;;;;;8.38;4.75;;;20.50;36.70;;;;;;5082023;28;20035;-63
2021/03/03 01:15:06;;;;;;;9.95;4.05;;;20.50;36.70;;;;;;5081365;28;20040;-63
2021/03/03 01:17:33;;;;;;;8.48;4.40;;;20.40;36.70;;;;;;5082039;28;20066;-63
2021/03/03 01:19:58;;;;;;;10.52;4.80;;;20.40;36.70;;;;;;5082017;28;20108;-63
2021/03/03 01:22:24;;;;;;;9.65;4.60;;;20.40;36.70;;;;;;5083347;28;20032;-63
2021/03/03 01:24:51;;;;;;;8.55;4.43;;;20.40;36.70;;;;;;5082853;28;20020;-63
2021/03/03 01:27:17;;;;;;;8.98;4.93;;;20.40;36.70;;;;;;5082855;28;20029;-63
2021/03/03 01:29:42;;;;;;;9.82;4.72;;;20.40;36.70;;;;;;5083265;28;20024;-64
2021/03/03 01:32:08;;;;;;;7.60;4.53;;;20.40;36.70;;;;;;5083095;28;20112;-64
2021/03/03 01:34:33;;;;;;;10.00;4.60;;;20.30;36.70;;;;;;5081802;28;20033;-63
2021/03/03 01:36:59;;;;;;;9.40;5.03;;;20.40;36.70;;;;;;5083611;28;20074;-63
2021/03/03 01:39:24;;;;;;;8.88;4.53;;;20.30;36.70;;;;;;5082955;28;20021;-63
2021/03/03 01:41:50;;;;;;;8.07;4.57;;;20.30;36.70;;;;;;5082620;28;20047;-63
2021/03/03 01:44:15;;;;;;;11.13;5.05;;;20.40;36.70;;;;;;5082864;28;20021;-63
2021/03/03 01:46:41;;;;;;;9.65;4.03;;;20.30;36.60;;;;;;5083208;28;20056;-63
2021/03/03 01:49:06;;;;;;;9.30;5.32;;;20.30;36.70;;;;;;5082514;28;20028;-64
2021/03/03 01:51:33;;;;;;;8.88;5.07;;;20.30;36.70;;;;;;5083062;28;20058;-63
2021/03/03 01:53:59;;;;;;;9.10;4.57;;;20.30;36.70;;;;;;5083567;28;20021;-63
2021/03/03 01:56:25;;;;;;;8.63;4.38;;;20.30;36.70;;;;;;5082764;28;20122;-63
2021/03/03 01:58:50;;;;;;;9.25;4.50;;;20.30;36.70;;;;;;5082013;28;20070;-63
2021/03/03 02:01:17;;;;;;;8.43;4.28;;;20.30;36.70;;;;;;5081437;28;20029;-63
2021/03/03 02:03:42;;;;;;;8.55;4.10;;;20.20;36.70;;;;;;5084003;28;20029;-63
2021/03/03 02:06:44;;;;;;;7.82;4.28;;;20.30;36.70;;;;;;5083079;28;20439;-63
2021/03/03 02:09:20;;;;;;;10.25;4.95;;;20.30;36.70;;;;;;5083794;28;20071;-63
2021/03/03 02:12:01;;;;;;;8.50;4.35;;;20.30;36.70;;;;;;5083059;28;20039;-63
2021/03/03 02:14:28;;;;;;;10.13;4.63;;;20.30;36.70;;;;;;5081686;28;20534;-64
2021/03/03 02:16:55;;;;;;;9.77;4.38;;;20.20;36.60;;;;;;5085493;28;20035;-63
2021/03/03 02:19:29;;;;;;;8.02;4.15;;;20.30;36.70;;;;;;5084351;28;20035;-63
2021/03/03 02:22:08;;;;;;;8.93;4.10;;;20.20;36.70;;;;;;5084841;28;20040;-63
2021/03/03 02:24:42;;;;;;;8.52;4.50;;;20.20;36.70;;;;;;5086061;28;20035;-63
2021/03/03 02:27:08;;;;;;;;;;;20.20;36.70;;;;;;5080870;28;20056;-63
2021/03/03 02:29:34;;;;;;;9.88;4.00;;;20.20;36.70;;;;;;5085972;28;20291;-63
2021/03/03 02:32:00;;;;;;;8.32;4.65;;;20.20;36.70;;;;;;5085860;28;20028;-64
2021/03/03 02:34:28;;;;;;;8.35;4.55;;;20.20;36.70;;;;;;5081891;28;20024;-63
2021/03/03 02:36:54;;;;;;;7.88;4.30;;;20.20;36.70;;;;;;5080462;28;20029;-63
2021/03/03 02:39:23;;;;;;;7.75;4.03;;;20.20;36.70;;;;;;5083115;28;20044;-63
2021/03/03 02:41:49;;;;;;;9.43;4.13;;;20.20;36.70;;;;;;5085259;28;20071;-63
2021/03/03 02:44:15;;;;;;;8.13;4.22;;;20.20;36.70;;;;;;5083952;28;20051;-63
2021/03/03 02:46:45;;;;;;;9.25;4.25;;;20.20;36.70;;;;;;5081571;28;20053;-63
2021/03/03 02:49:12;;;;;;;7.65;4.35;;;20.20;36.70;;;;;;5085644;28;20036;-63
2021/03/03 02:51:38;;;;;;;8.23;4.40;;;20.20;36.70;;;;;;5086266;28;20029;-63
2021/03/03 02:54:08;;;;;;;9.07;4.10;;;20.20;36.70;;;;;;5086542;28;20021;-64
2021/03/03 02:56:35;;;;;;;6.95;3.75;;;20.10;36.70;;;;;;5085504;28;20029;-63
2021/03/03 02:59:02;;;;;;;8.13;4.43;;;20.10;36.70;;;;;;5085263;28;20025;-63
2021/03/03 03:01:28;;;;;;;10.57;4.68;;;20.10;36.70;;;;;;5086381;28;20043;-63
2021/03/03 03:04:00;;;;;;;9.18;4.00;;;20.10;36.70;;;;;;5085381;28;20028;-63
2021/03/03 03:06:38;;;;;;;7.15;4.20;;;20.10;36.70;;;;;;5086003;28;20025;-63
2021/03/03 03:09:07;;;;;;;8.68;4.18;;;20.10;36.70;;;;;;5085989;28;20024;-63
2021/03/03 03:11:36;;;;;;;7.63;4.35;;;20.10;36.70;;;;;;5084302;28;20028;-63
2021/03/03 03:14:07;;;;;;;7.72;4.15;;;20.10;36.70;;;;;;5079135;28;20046;-63
2021/03/03 03:16:36;;;;;;;9.43;4.53;;;20.10;36.70;;;;;;5083184;28;20078;-62
2021/03/03 03:19:05;;;;;;;8.48;4.47;;;20.10;36.70;;;;;;5082231;28;20040;-64
2021/03/03 03:21:33;;;;;;;7.63;4.03;;;20.10;36.70;;;;;;5080676;28;20023;-63
2021/03/03 03:24:00;;;;;;;7.97;4.40;;;20.10;36.70;;;;;;5085028;28;20028;-64
2021/03/03 03:26:27;;;;;;;8.13;3.92;;;20.10;36.70;;;;;;5085001;28;20021;-63
2021/03/03 03:28:53;;;;;;;6.65;3.58;;;20.10;36.70;;;;;;5081678;28;20105;-63
2021/03/03 03:31:19;;;;;;;8.18;4.18;;;20.10;36.70;;;;;;5079244;28;20028;-63
2021/03/03 03:33:45;;;;;;;6.72;3.65;;;20.10;36.70;;;;;;5084942;28;20107;-63
2021/03/03 03:36:10;;;;;;;7.45;4.25;;;20.10;36.70;;;;;;5082383;28;20036;-63
2021/03/03 03:38:36;;;;;;;8.00;4.00;;;20.00;36.70;;;;;;5077892;28;20039;-63
2021/03/03 03:41:05;;;;;;;7.30;4.05;;;20.00;36.70;;;;;;5077801;28;20029;-63
2021/03/03 03:43:33;;;;;;;9.30;4.32;;;20.00;36.70;;;;;;5082162;28;20032;-64
2021/03/03 03:46:02;;;;;;;8.13;3.92;;;20.00;36.70;;;;;;5075538;28;20051;-63
2021/03/03 03:48:29;;;;;;;10.32;4.50;;;20.00;36.70;;;;;;5078655;28;20025;-63
2021/03/03 03:50:55;;;;;;;7.10;4.15;;;20.00;36.70;;;;;;5082798;28;20491;-63
2021/03/03 03:53:22;;;;;;;7.60;3.83;;;20.00;36.70;;;;;;5083162;28;20037;-63
2021/03/03 03:55:47;;;;;;;6.85;3.72;;;20.00;36.60;;;;;;5082841;28;20020;-63
2021/03/03 03:58:13;;;;;;;8.80;4.70;;;20.00;36.70;;;;;;5081501;28;20052;-63
2021/03/03 04:00:39;;;;;;;8.90;4.00;;;20.00;36.80;;;;;;5082907;28;20036;-63
2021/03/03 04:03:05;;;;;;;6.80;3.60;;;20.00;36.70;;;;;;5083636;28;20064;-63
2021/03/03 04:05:30;;;;;;;7.53;4.45;;;20.00;36.70;;;;;;5082548;28;20117;-64
2021/03/03 04:07:56;;;;;;;7.70;4.05;;;20.00;36.70;;;;;;5084797;28;20357;-63
2021/03/03 04:10:26;;;;;;;8.20;4.72;;;20.00;36.70;;;;;;5084924;28;20025;-63
2021/03/03 04:12:52;;;;;;;7.30;4.00;;;20.00;36.70;;;;;;5084240;28;20032;-63
2021/03/03 04:15:18;;;;;;;8.95;4.18;;;20.00;36.70;;;;;;5085314;28;20029;-63
2021/03/03 04:17:45;;;;;;;8.02;4.05;;;20.00;36.70;;;;;;5085721;28;20037;-63
2021/03/03 04:20:12;;;;;;;6.72;3.40;;;20.00;36.70;;;;;;5084725;28;20032;-63
2021/03/03 04:22:40;;;;;;;8.35;4.30;;;20.00;36.70;;;;;;5084952;28;20388;-63
2021/03/03 04:25:08;;;;;;;7.35;4.07;;;20.00;36.70;;;;;;5085107;28;20021;-63
2021/03/03 04:27:34;;;;;;;8.00;3.78;;;20.00;36.70;;;;;;5083670;28;20020;-63
2021/03/03 04:30:00;;;;;;;7.55;3.88;;;20.00;36.60;;;;;;5084339;28;20029;-63
2021/03/03 04:32:25;;;;;;;7.78;4.18;;;20.00;36.70;;;;;;5084454;28;20050;-63
2021/03/03 04:34:51;;;;;;;9.23;3.90;;;20.00;36.70;;;;;;5084507;28;20499;-63
2021/03/03 04:37:17;;;;;;;8.50;4.75;;;20.00;36.60;;;;;;5083764;28;20033;-63
2021/03/03 04:39:42;;;;;;;7.55;3.90;;;20.00;36.60;;;;;;5083730;28;20028;-63
2021/03/03 04:42:08;;;;;;;7.60;4.13;;;20.00;36.70;;;;;;5083272;28;20037;-63
2021/03/03 04:44:33;;;;;;;7.90;4.30;;;20.00;36.60;;;;;;5077979;28;20032;-63
2021/03/03 04:46:59;;;;;;;8.35;3.45;;;20.00;36.60;;;;;;5076828;28;20431;-63
2021/03/03 04:49:28;;;;;;;8.20;3.95;;;20.00;36.70;;;;;;5083671;28;20020;-63
2021/03/03 04:51:53;;;;;;;6.85;3.50;;;20.00;36.60;;;;;;5082352;28;20076;-63
2021/03/03 04:54:19;;;;;;;7.55;3.72;;;20.00;36.60;;;;;;5083093;28;20032;-63
2021/03/03 04:56:45;;;;;;;8.60;3.60;;;20.00;36.70;;;;;;5083752;28;20036;-63
2021/03/03 04:59:10;;;;;;;8.50;4.05;;;19.90;36.70;;;;;;5082979;28;20037;-63
2021/03/03 05:01:36;;;;;;;7.95;4.10;;;19.90;36.70;;;;;;5083564;28;20107;-63
2021/03/03 05:04:01;;;;;;;8.38;3.65;;;19.90;36.70;;;;;;5084482;28;20029;-63
2021/03/03 05:06:27;;;;;;;6.95;3.42;;;20.00;36.70;;;;;;5081933;28;20399;-63
2021/03/03 05:08:52;;;;;;;7.32;3.80;;;19.90;36.60;;;;;;5078912;28;20464;-63
2021/03/03 05:11:18;;;;;;;8.30;3.60;;;19.90;36.60;;;;;;5076278;28;20414;-63
2021/03/03 05:13:44;;;;;;;7.32;3.35;;;20.00;36.60;;;;;;5081458;28;20040;-63
2021/03/03 05:16:09;;;;;;;7.85;3.65;;;20.00;36.60;;;;;;5082627;28;20024;-63
2021/03/03 05:18:35;;;;;;;7.43;3.45;;;20.00;36.50;;;;;;5082945;28;20048;-63
2021/03/03 05:21:00;;;;;;;8.40;3.97;;;20.00;36.50;;;;;;5083030;28;20479;-63
2021/03/03 05:23:30;;;;;;;6.65;3.58;;;20.00;36.40;;;;;;5083731;28;20052;-64
2021/03/03 05:25:56;;;;;;;8.88;3.70;;;20.10;36.40;;;;;;5084143;28;20060;-63
2021/03/03 05:28:22;;;;;;;6.50;3.30;;;20.10;36.40;;;;;;5083795;28;20035;-63
2021/03/03 05:30:48;;;;;;;7.15;3.72;;;20.10;36.30;;;;;;5083607;28;20021;-63
2021/03/03 05:33:22;;;;;;;7.43;4.05;;;20.20;36.30;;;;;;5084606;28;20055;-63
2021/03/03 05:35:48;;;;;;;6.95;3.45;;;20.20;36.10;;;;;;5083940;28;20040;-63
2021/03/03 05:38:13;;;;;;;7.20;3.33;;;20.20;36.20;;;;;;5084567;28;20408;-63
2021/03/03 05:40:39;;;;;;;8.45;4.03;;;20.30;36.20;;;;;;5086121;28;20350;-62
2021/03/03 05:43:05;;;;;;;6.30;3.42;;;20.30;36.10;;;;;;5085754;28;20052;-63
2021/03/03 05:45:30;;;;;;;7.82;3.63;;;20.30;36.00;;;;;;5084705;28;20036;-62
2021/03/03 05:47:56;;;;;;;7.53;3.33;;;20.30;36.10;;;;;;5085730;28;20027;-63
2021/03/03 05:50:23;;;;;;;6.45;3.38;;;20.30;35.90;;;;;;5086747;28;20033;-62
2021/03/03 05:52:50;;;;;;;8.60;4.05;;;20.40;36.00;;;;;;5087427;28;20036;-63
2021/03/03 05:55:16;;;;;;;7.28;3.72;;;20.40;36.00;;;;;;5084787;28;20025;-63
2021/03/03 05:57:43;;;;;;;6.43;3.65;;;20.40;35.90;;;;;;5086351;28;20043;-62
2021/03/03 06:00:09;;;;;;;7.70;3.75;;;20.50;35.90;;;;;;5085245;28;20077;-63
2021/03/03 06:02:36;;;;;;;8.10;3.72;;;20.50;35.90;;;;;;5085485;28;20041;-62
2021/03/03 06:05:03;;;;;;;8.15;3.50;;;20.50;35.90;;;;;;5086288;28;20028;-63
2021/03/03 06:07:29;;;;;;;6.93;3.58;;;20.50;35.80;;;;;;5083653;28;20094;-63
2021/03/03 06:09:54;;;;;;;10.57;3.88;;;20.50;35.80;;;;;;5085123;28;20025;-62
2021/03/03 06:12:20;;;;;;;6.60;3.58;;;20.50;35.80;;;;;;5086751;28;20502;-62
2021/03/03 06:14:46;;;;;;;9.35;3.88;;;20.50;35.80;;;;;;5084972;28;20035;-63
2021/03/03 06:17:12;;;;;;;7.55;3.58;;;20.50;35.70;;;;;;5083597;28;20040;-64
2021/03/03 06:19:39;;;;;;;6.78;3.72;;;20.60;35.70;;;;;;5084401;28;20475;-64
2021/03/03 06:22:23;;;;;;;6.78;3.53;;;20.60;35.70;;;;;;5085186;28;20041;-63
2021/03/03 06:24:49;;;;;;;6.97;3.20;;;20.60;35.70;;;;;;5086464;28;20042;-64
2021/03/03 06:27:15;;;;;;;7.78;3.40;;;20.60;35.70;;;;;;5085918;28;20115;-63
2021/03/03 06:29:40;;;;;;;7.80;3.53;;;20.60;35.70;;;;;;5086193;28;20033;-63
2021/03/03 06:32:06;;;;;;;6.82;3.63;;;20.70;35.60;;;;;;5086545;28;20021;-63
2021/03/03 06:34:32;;;;;;;8.93;3.95;;;20.70;35.60;;;;;;5086069;28;20099;-63
2021/03/03 06:37:03;;;;;;;5.88;3.15;;;20.70;35.70;;;;;;5086177;28;20036;-64
2021/03/03 06:39:34;;;;;;;6.78;3.60;;;20.70;35.70;;;;;;5086319;28;20028;-63
2021/03/03 06:42:04;;;;;;;7.47;3.55;;;20.70;35.60;;;;;;5085934;28;20052;-63
2021/03/03 06:45:00;;;;;;;6.00;3.33;;;20.70;35.60;;;;;;5086073;28;20046;-63
2021/03/03 06:47:25;;;;;;;7.10;3.15;;;20.80;35.70;;;;;;5081641;28;20040;-63
2021/03/03 06:49:53;;;;;;;7.00;3.20;;;20.80;35.70;;;;;;5086863;28;20017;-64
2021/03/03 06:52:37;;;;;;;6.57;3.35;;;20.80;35.60;;;;;;5084196;28;20029;-63
2021/03/03 06:55:03;;;;;;;6.95;3.47;;;20.80;35.60;;;;;;5085130;28;20086;-64
2021/03/03 06:57:29;;;;;;;6.93;3.28;;;20.80;35.60;;;;;;5084471;28;20464;-63
2021/03/03 06:59:56;;;;;;;7.28;4.22;;;20.80;35.60;;;;;;5083742;28;20025;-63
2021/03/03 07:02:30;;;;;;;8.65;4.10;;;20.90;35.60;;;;;;5084937;28;20032;-64
2021/03/03 07:04:56;;;;;;;7.78;3.75;;;20.90;35.60;;;;;;5086101;28;20031;-64
2021/03/03 07:07:22;;;;;;;7.00;3.60;;;20.90;35.50;;;;;;5084811;28;20045;-64
2021/03/03 07:09:49;;;;;;;8.68;3.30;;;20.90;35.60;;;;;;5085497;28;20025;-63
2021/03/03 07:12:21;;;;;;;7.63;3.42;;;20.90;35.60;;;;;;5085427;28;20086;-63
2021/03/03 07:15:07;;;;;;;7.10;3.40;;;20.90;35.50;;;;;;5085838;28;20017;-63
2021/03/03 07:17:43;;;;;;;8.45;3.80;;;20.90;35.50;;;;;;5084952;28;20045;-64
2021/03/03 07:20:17;;;;;;;7.05;3.33;;;21.00;35.50;;;;;;5083673;28;20029;-63
2021/03/03 07:22:50;;;;;;;6.40;3.53;;;21.00;35.50;;;;;;5083882;28;20036;-64
2021/03/03 07:25:18;;;;;;;6.15;3.10;;;21.00;35.40;;;;;;5085068;28;20017;-64
2021/03/03 07:27:44;;;;;;;9.55;4.05;;;21.00;35.40;;;;;;5084506;28;20427;-63
2021/03/03 07:30:19;;;;;;;10.98;3.60;;;21.00;35.40;;;;;;5085296;28;20103;-63
2021/03/03 07:32:44;;;;;;;7.32;3.35;;;21.00;35.40;;;;;;5083447;28;20029;-63
2021/03/03 07:35:12;;;;;;;7.95;3.50;;;21.00;35.40;;;;;;5083722;28;20056;-63
2021/03/03 07:37:41;;;;;;;6.43;3.15;;;21.00;35.40;;;;;;5085379;28;20024;-63
2021/03/03 07:40:09;;;;;;;6.57;3.35;;;21.00;35.40;;;;;;5084733;28;20086;-63
2021/03/03 07:42:36;;;;;;;7.53;3.17;;;21.00;35.50;;;;;;5084373;28;20047;-63
2021/03/03 07:45:13;;;;;;;13.90;5.10;;;21.00;35.40;;;;;;5083308;28;20024;-63
2021/03/03 07:47:41;;;;;;;7.50;3.40;;;21.00;35.40;;;;;;5084532;28;20091;-64
2021/03/03 07:50:14;;;;;;;6.57;3.00;;;21.10;35.40;;;;;;5085112;28;20017;-64
2021/03/03 07:53:00;;;;;;;6.75;3.42;;;21.10;35.30;;;;;;5084005;28;20036;-64
2021/03/03 07:55:27;;;;;;;9.57;3.67;;;21.10;35.30;;;;;;5083062;28;20052;-64
2021/03/03 07:57:54;;;;;;;7.47;3.53;;;21.10;35.40;;;;;;5079473;28;20548;-63
2021/03/03 08:00:30;;;;;;;8.10;3.80;;;21.10;35.40;;;;;;5083666;28;20016;-63
2021/03/03 08:02:57;;;;;;;7.25;3.33;;;21.20;35.30;;;;;;5083782;28;20033;-63
2021/03/03 08:05:27;;;;;;;7.53;3.17;;;21.20;35.30;;;;;;5083647;28;20492;-64
2021/03/03 08:08:08;;;;;;;6.65;3.20;;;21.20;35.30;;;;;;5081706;28;20028;-63
2021/03/03 08:10:38;;;;;;;7.72;3.78;;;21.20;35.30;;;;;;5081796;28;20021;-63
2021/03/03 08:13:08;;;;;;;6.82;3.35;;;21.20;35.20;;;;;;5082625;28;20031;-62
2021/03/03 08:15:40;;;;;;;7.63;3.58;;;21.20;35.30;;;;;;5094326;28;20035;-61
2021/03/03 08:18:23;;;;;;;8.90;3.20;;;21.20;35.30;;;;;;5103676;28;20075;-64
2021/03/03 08:20:53;;;;;;;6.60;3.17;;;21.20;35.40;;;;;;5113335;28;20486;-63
2021/03/03 08:23:33;;;;;;;6.38;3.30;;;21.20;35.30;;;;;;5117544;28;20085;-61
2021/03/03 08:26:07;;;;;;;8.77;3.60;;;21.30;35.40;;;;;;5120208;28;20442;-62
2021/03/03 08:28:38;;;;;;;7.13;3.50;;;21.30;35.40;;;;;;5123813;28;20035;-62
2021/03/03 08:33:47;;;;;;;7.32;3.80;;;21.30;35.30;;;;;;5124036;28;20100;-63
2021/03/03 08:36:21;;;;;;;8.65;3.58;;;21.40;35.30;;;;;;5122004;28;20023;-63
2021/03/03 08:38:53;;;;;;;8.40;3.58;;;21.40;35.20;;;;;;5117908;28;20105;-62
2021/03/03 08:41:19;;;;;;;8.75;3.63;;;21.40;35.20;;;;;;5125472;28;20027;-62
2021/03/03 08:43:47;;;;;;;11.77;3.58;;;21.40;35.20;;;;;;5123465;28;20031;-62
2021/03/03 08:46:18;;;;;;;8.35;3.58;;;21.50;35.20;;;;;;5124031;28;20043;-63
2021/03/03 08:49:07;;;;;;;6.85;3.55;;;21.50;35.10;;;;;;5121547;28;20114;-62
2021/03/03 08:51:36;;;;;;;7.53;3.20;;;21.50;35.20;;;;;;5110535;28;20482;-62
2021/03/03 08:54:04;;;;;;;7.93;3.30;;;21.50;35.10;;;;;;5122903;28;20016;-63
2021/03/03 08:56:46;;;;;;;7.53;3.63;;;21.50;35.10;;;;;;5123443;28;20038;-62
2021/03/03 08:59:36;;;;;;;7.38;3.30;;;21.50;35.10;;;;;;5120146;28;20020;-64
2021/03/03 09:02:20;;;;;;;7.82;3.53;;;21.50;35.10;;;;;;5122231;28;20053;-62
2021/03/03 09:04:45;;;;;;;7.95;3.25;;;21.50;35.10;;;;;;5122622;28;20051;-62
2021/03/03 09:07:22;;;;;;;6.00;3.28;;;21.50;35.10;;;;;;5121825;28;20034;-63
2021/03/03 09:09:50;;;;;;;8.88;3.85;;;21.50;35.10;;;;;;5122045;28;20115;-63
2021/03/03 09:12:19;;;;;;;7.78;3.63;;;21.60;35.00;;;;;;5121634;28;20027;-62
2021/03/03 09:14:46;;;;;;;6.07;3.33;;;21.50;35.10;;;;;;5120668;28;20463;-65
2021/03/03 09:17:18;;;;;;;7.40;3.40;;;21.60;35.10;;;;;;5124523;28;20043;-63
2021/03/03 09:19:44;;;;;;;8.30;3.20;;;21.60;35.10;;;;;;5124963;28;20027;-62
2021/03/03 09:22:23;;;;;;;7.63;3.42;;;21.60;35.10;;;;;;5121886;28;20115;-63
2021/03/03 09:24:52;;;;;;;7.97;3.60;;;21.60;35.10;;;;;;5120924;28;20065;-62
2021/03/03 09:27:19;;;;;;;6.80;2.90;;;21.60;35.10;;;;;;5121671;28;20103;-62
2021/03/03 09:29:45;;;;;;;7.75;3.08;;;21.60;35.10;;;;;;5121413;28;20058;-63
2021/03/03 09:32:13;;;;;;;9.75;4.10;;;21.60;35.10;;;;;;5122190;28;20574;-63
2021/03/03 09:34:47;;;;;;;7.00;3.58;;;21.60;35.10;;;;;;5123034;28;20023;-63
2021/03/03 09:37:14;;;;;;;6.25;3.20;;;21.70;35.10;;;;;;5120022;28;20034;-62
2021/03/03 09:39:40;;;;;;;6.47;3.20;;;21.70;35.10;;;;;;5117098;28;20046;-62
2021/03/03 09:42:10;;;;;;;7.25;3.30;;;21.70;35.10;;;;;;5115660;28;20479;-62
2021/03/03 09:45:01;;;;;;;8.40;3.42;;;21.70;35.10;;;;;;5116898;28;20092;-62
2021/03/03 09:47:29;;;;;;;7.93;3.70;;;21.70;35.10;;;;;;5113905;28;20180;-62
2021/03/03 09:49:56;;;;;;;7.50;2.88;;;21.70;35.10;;;;;;5097377;28;20494;-61
2021/03/03 09:52:22;;;;;;;6.88;3.38;;;21.80;35.00;;;;;;5097063;28;20398;-62
2021/03/03 09:54:48;;;;;;;9.77;3.80;;;21.80;35.00;;;;;;5095385;28;20024;-62
2021/03/03 09:57:23;;;;;;;5.90;3.17;;;21.80;35.00;;;;;;5096098;28;20411;-62
2021/03/03 09:59:52;;;;;;;7.13;2.95;;;21.80;35.00;;;;;;5094503;28;20119;-61
2021/03/03 10:02:19;;;;;;;7.15;3.03;;;21.80;35.00;;;;;;5095361;28;20032;-61
2021/03/03 10:04:46;;;;;;;7.22;3.15;;;21.80;35.10;;;;;;5093841;28;20064;-61
2021/03/03 10:07:20;;;;;;;7.25;2.90;;;21.80;35.00;;;;;;5103601;28;20031;-64
2021/03/03 10:09:48;;;;;;;10.15;3.35;;;21.90;35.10;;;;;;5095131;28;20447;-61
2021/03/03 10:12:16;;;;;;;7.55;2.85;;;21.80;35.10;;;;;;5095360;28;20028;-62
2021/03/03 10:14:53;;;;;;;7.47;3.17;;;21.90;35.10;;;;;;5094376;28;20024;-61
2021/03/03 10:17:30;;;;;;;7.30;3.40;;;21.90;35.10;;;;;;5093754;28;20077;-62
2021/03/03 10:19:56;;;;;;;7.35;3.28;;;21.90;35.00;;;;;;5099487;28;20059;-61
2021/03/03 10:22:22;;;;;;;6.95;3.00;;;22.00;35.00;;;;;;5099714;28;20063;-62
2021/03/03 10:24:58;;;;;;;6.60;3.08;;;22.00;35.00;;;;;;5088622;28;20024;-62
2021/03/03 10:27:25;;;;;;;7.05;2.95;;;22.00;35.00;;;;;;5084324;28;20077;-63
2021/03/03 10:29:50;;;;;;;6.55;2.83;;;22.00;35.10;;;;;;5096724;28;20024;-62
2021/03/03 10:32:16;;;;;;;7.78;3.38;;;22.00;35.00;;;;;;5085510;28;20480;-61
2021/03/03 10:34:43;;;;;;;5.35;2.78;;;22.10;35.00;;;;;;5077512;28;20080;-62
2021/03/03 10:37:22;;;;;;;6.20;3.00;;;22.10;35.00;;;;;;5113206;28;20023;-62
2021/03/03 10:39:49;;;;;;;7.10;3.13;;;22.10;35.00;;;;;;5116059;28;20483;-62
2021/03/03 10:42:21;;;;;;;7.50;2.90;;;22.10;35.10;;;;;;5115593;27;20054;-62
2021/03/03 10:44:51;;;;;;;6.72;2.83;;;22.10;35.10;;;;;;5116207;28;20027;-62
2021/03/03 10:47:37;;;;;;;8.25;2.90;;;22.20;35.10;;;;;;5115596;28;20023;-62
2021/03/03 10:50:05;;;;;;;6.28;2.67;;;22.20;35.20;;;;;;5116266;28;20016;-62
2021/03/03 10:52:30;;;;;;;5.53;2.55;;;22.10;35.20;;;;;;5115370;28;20020;-62
2021/03/03 10:54:56;;;;;;;7.75;3.22;;;22.20;35.20;;;;;;5114997;28;20485;-63
2021/03/03 10:57:21;;;;;;;7.63;3.22;;;22.20;35.20;;;;;;5115483;28;20026;-62
2021/03/03 10:59:47;;;;;;;6.20;3.25;;;22.20;35.20;;;;;;5116336;28;20027;-62
2021/03/03 11:02:22;;;;;;;7.35;3.33;;;22.20;35.20;;;;;;5114488;28;20080;-61
2021/03/03 11:04:47;;;;;;;7.47;2.72;;;22.30;35.20;;;;;;5115756;28;20023;-62
2021/03/03 11:07:15;;;;;;;7.18;3.28;;;22.20;35.30;;;;;;5115328;28;20027;-62
2021/03/03 11:09:41;;;;;;;7.45;3.25;;;22.30;35.20;;;;;;5115275;28;20016;-61
2021/03/03 11:12:08;;;;;;;6.57;2.97;;;22.30;35.20;;;;;;5114364;28;20034;-61
2021/03/03 11:14:35;;;;;;;5.05;2.60;;;22.40;35.20;;;;;;5114953;28;20020;-60
2021/03/03 11:17:02;;;;;;;7.57;3.40;;;22.40;35.20;;;;;;5115096;28;20043;-61
2021/03/03 11:19:29;;;;;;;8.05;3.40;;;22.40;35.20;;;;;;5114962;28;20108;-60
2021/03/03 11:21:56;;;;;;;7.45;3.42;;;22.40;35.20;;;;;;5114200;28;20071;-61
2021/03/03 11:24:23;;;;;;;7.30;3.53;;;22.50;35.20;;;;;;5115567;28;20031;-60
2021/03/03 11:26:49;;;;;;;6.68;2.95;;;22.50;35.20;;;;;;5114674;28;20019;-60
2021/03/03 11:29:14;;;;;;;6.95;3.22;;;22.50;35.20;;;;;;5114926;28;20032;-60
2021/03/03 11:31:41;;;;;;;7.05;3.30;;;22.50;35.20;;;;;;5115544;28;20035;-59
2021/03/03 11:34:07;;;;;;;9.00;3.55;;;22.50;35.20;;;;;;5114620;28;20024;-60
2021/03/03 11:36:33;;;;;;;6.82;2.90;;;22.50;35.20;;;;;;5114178;28;20027;-60
2021/03/03 11:38:59;;;;;;;6.18;3.10;;;22.60;35.20;;;;;;5117291;28;20107;-61
2021/03/03 11:41:25;;;;;;;6.30;3.03;;;22.60;35.30;;;;;;5116091;28;20058;-60
2021/03/03 11:43:51;;;;;;;7.20;3.00;;;22.60;35.20;;;;;;5114252;28;20062;-60
2021/03/03 11:46:17;;;;;;;6.35;2.92;;;22.70;35.30;;;;;;5114634;28;20020;-60
2021/03/03 11:48:42;;;;;;;6.10;2.97;;;22.70;35.20;;;;;;5114389;28;20032;-60
2021/03/03 11:51:08;;;;;;;6.63;2.95;;;22.70;35.30;;;;;;5114456;28;20109;-60
2021/03/03 11:53:34;;;;;;;6.82;3.25;;;22.70;35.20;;;;;;5113352;28;20032;-60
2021/03/03 11:56:00;;;;;;;7.15;3.05;;;22.70;35.30;;;;;;5114021;28;20024;-60
2021/03/03 11:58:25;;;;;;;8.68;3.22;;;22.80;35.30;;;;;;5113592;28;20019;-60
2021/03/03 12:00:51;;;;;;;6.15;2.67;;;22.80;35.30;;;;;;5113510;28;20398;-60
2021/03/03 12:03:16;;;;;;;8.57;2.85;;;22.80;35.30;;;;;;5113672;28;20042;-63
2021/03/03 12:05:42;;;;;;;8.00;2.75;;;22.80;35.30;;;;;;5113143;28;20020;-60
2021/03/03 12:08:08;;;;;;;6.45;3.00;;;22.90;35.20;;;;;;5114146;28;20028;-61
2021/03/03 12:10:36;;;;;;;6.70;3.33;;;22.90;35.30;;;;;;5113795;28;20018;-61
2021/03/03 12:13:02;;;;;;;7.70;3.40;;;22.90;35.30;;;;;;5113278;28;20026;-61
2021/03/03 12:15:27;;;;;;;5.68;2.70;;;22.90;35.30;;;;;;5112618;28;20028;-60
2021/03/03 12:17:53;;;;;;;7.35;3.38;;;22.90;35.30;;;;;;5112590;28;20205;-60
2021/03/03 12:20:19;;;;;;;9.00;3.13;;;22.90;35.30;;;;;;5113560;28;20011;-59
2021/03/03 12:22:45;;;;;;;8.38;3.60;;;22.90;35.40;;;;;;5113263;28;20092;-59
2021/03/03 12:25:12;;;;;;;7.45;2.95;;;22.90;35.40;;;;;;5113287;28;20057;-59
2021/03/03 12:27:37;;;;;;;7.07;2.90;;;22.90;35.40;;;;;;5113077;28;20368;-60
2021/03/03 12:30:04;;;;;;;7.90;3.33;;;22.90;35.40;;;;;;5113199;28;20081;-59
2021/03/03 12:32:29;;;;;;;8.70;3.30;;;22.90;35.40;;;;;;5113347;28;20016;-60
2021/03/03 12:34:55;;;;;;;9.77;3.10;;;22.80;35.40;;;;;;5113085;28;20032;-61
2021/03/03 12:37:21;;;;;;;6.32;2.88;;;22.90;35.40;;;;;;5114170;28;20015;-60
2021/03/03 12:39:47;;;;;;;5.85;3.30;;;22.80;35.50;;;;;;5115209;28;20122;-60
2021/03/03 12:42:12;;;;;;;8.23;2.80;;;22.80;35.50;;;;;;5115197;28;20095;-61
2021/03/03 12:44:39;;;;;;;9.13;3.00;;;22.80;35.50;;;;;;5118615;28;20516;-61
2021/03/03 12:47:04;;;;;;;6.80;3.22;;;22.80;35.50;;;;;;5103018;28;20028;-62
2021/03/03 12:49:30;;;;;;;7.47;2.80;;;22.80;35.50;;;;;;5092426;28;20038;-60
2021/03/03 12:51:56;;;;;;;7.20;3.53;;;22.70;35.50;;;;;;5092671;28;20032;-59
2021/03/03 12:54:21;;;;;;;5.45;2.78;;;22.70;35.60;;;;;;5092673;28;20107;-59